Time;durP1;ratioP1;P1;durP2;ratioP2;P2;SDS_P1;SDS_P2;PMS_P1;PMS_P2;Temp;Humidity;BMP_temperature;BMP_pressure;BME280_temperature;BME280_humidity;BME280_pressure;Samples;Min_cycle;Max_cycle;Signal;HPM_P1;HPM_P2
2022/06/29 00:05:02;;;;;;;4.47;4.07;;;;;;;21.00;66.21;96961.59;10019759;29;20069;-83
2022/06/29 00:10:23;;;;;;;3.97;3.70;;;;;;;21.00;66.19;96964.31;10007374;29;20050;-84
2022/06/29 00:15:42;;;;;;;4.00;3.70;;;;;;;21.00;66.28;96950.78;10009976;29;20055;-83
2022/06/29 00:21:02;;;;;;;4.30;3.90;;;;;;;20.99;66.41;96954.59;10005433;29;20421;-83
2022/06/29 00:26:22;;;;;;;4.35;3.95;;;;;;;20.99;66.36;96943.75;9989420;29;20064;-83
2022/06/29 00:31:43;;;;;;;4.18;3.88;;;;;;;20.99;66.32;96951.09;10002125;29;20421;-83
2022/06/29 00:37:03;;;;;;;4.20;3.90;;;;;;;20.99;66.26;96949.16;9994954;29;20065;-83
2022/06/29 00:42:23;;;;;;;4.13;3.83;;;;;;;21.00;66.15;96958.91;9981652;29;20058;-83
2022/06/29 00:47:42;;;;;;;4.45;4.05;;;;;;;20.99;66.33;96942.97;10000432;29;20050;-83
2022/06/29 00:53:04;;;;;;;4.53;4.22;;;;;;;20.99;66.44;96938.34;9999601;29;20051;-81
2022/06/29 00:58:25;;;;;;;4.18;3.88;;;;;;;20.99;66.30;96937.56;10015255;29;20118;-84
2022/06/29 01:03:45;;;;;;;4.13;3.75;;;;;;;20.98;66.41;96931.34;10014562;29;20467;-83
2022/06/29 01:09:05;;;;;;;3.90;3.60;;;;;;;20.97;66.34;96927.03;9982762;29;20494;-83
2022/06/29 01:14:25;;;;;;;4.13;3.83;;;;;;;20.97;66.33;96945.22;9992600;29;20057;-83
2022/06/29 01:19:44;;;;;;;4.45;4.05;;;;;;;20.97;66.21;96948.72;10012268;29;20053;-83
2022/06/29 01:25:04;;;;;;;4.47;4.07;;;;;;;20.98;66.25;96935.97;10013675;29;20053;-83
2022/06/29 01:30:24;;;;;;;4.50;4.20;;;;;;;20.97;66.30;96929.75;10009936;29;20114;-84
2022/06/29 01:35:45;;;;;;;4.07;3.78;;;;;;;20.98;66.48;96925.16;10010149;29;20046;-83
2022/06/29 01:41:05;;;;;;;4.43;4.05;;;;;;;20.96;66.50;96936.31;9983398;29;20050;-83
2022/06/29 01:46:25;;;;;;;4.60;4.20;;;;;;;20.95;66.58;96921.16;10003670;29;20502;-83
2022/06/29 01:51:44;;;;;;;4.20;3.90;;;;;;;20.96;66.45;96947.13;10025241;29;20046;-83
2022/06/29 01:57:04;;;;;;;4.55;4.15;;;;;;;20.96;66.51;96935.53;10013344;29;20073;-83
2022/06/29 02:02:23;;;;;;;3.97;3.67;;;;;;;20.94;66.57;96933.91;10005996;29;20058;-82
2022/06/29 02:07:43;;;;;;;4.22;3.92;;;;;;;20.93;66.48;96910.69;10008861;29;20054;-84
2022/06/29 02:13:02;;;;;;;4.13;3.83;;;;;;;20.95;66.47;96899.50;10012464;29;20149;-84
2022/06/29 02:18:22;;;;;;;3.78;3.47;;;;;;;20.94;66.45;96887.88;9982960;29;20065;-83
2022/06/29 02:23:42;;;;;;;3.97;3.67;;;;;;;20.93;66.30;96880.09;10007669;29;20050;-83
2022/06/29 02:29:01;;;;;;;3.78;3.47;;;;;;;20.94;66.18;96884.38;10012981;29;20054;-83
2022/06/29 02:39:59;;;;;;;3.45;3.20;;;;;;;20.93;66.36;96940.47;10019121;29;20050;-83
2022/06/29 02:45:18;;;;;;;4.22;3.60;;;;;;;20.93;66.16;96936.94;10007797;29;20105;-83
2022/06/29 02:50:38;;;;;;;3.42;3.13;;;;;;;20.92;66.47;96932.69;10011200;29;20050;-83
2022/06/29 02:55:58;;;;;;;13.27;3.95;;;;;;;20.93;66.22;96929.66;9993818;29;20061;-83
2022/06/29 03:01:18;;;;;;;3.50;3.20;;;;;;;20.93;66.49;96926.13;10007183;29;20050;-83
2022/06/29 03:06:37;;;;;;;3.47;3.22;;;;;;;20.92;66.25;96929.97;9998600;29;20159;-83
2022/06/29 03:11:57;;;;;;;3.03;2.78;;;;;;;20.93;66.36;96909.88;9999432;29;20050;-83
2022/06/29 03:17:16;;;;;;;3.15;2.95;;;;;;;20.92;66.22;96919.13;9996620;29;20065;-83
2022/06/29 03:22:36;;;;;;;3.13;2.92;;;;;;;20.93;66.42;96918.00;9999275;29;20050;-84
2022/06/29 03:27:56;;;;;;;3.72;3.42;;;;;;;20.91;66.07;96893.97;10000015;29;20061;-83
2022/06/29 03:33:15;;;;;;;3.05;2.85;;;;;;;20.90;66.54;96875.34;10016117;29;20058;-83
2022/06/29 03:38:35;;;;;;;3.17;2.97;;;;;;;20.91;66.37;96876.91;9996034;29;20058;-83
2022/06/29 03:43:54;;;;;;;2.50;2.40;;;;;;;20.92;66.30;96883.94;9998327;29;20049;-83
2022/06/29 03:49:14;;;;;;;2.50;2.40;;;;;;;20.91;66.18;96876.91;9992965;29;20125;-83
2022/06/29 03:54:33;;;;;;;3.33;2.70;;;;;;;20.90;66.31;96875.34;10003583;29;20057;-83
2022/06/29 03:59:52;;;;;;;2.88;2.58;;;;;;;20.90;66.41;96875.34;10004054;29;20212;-83
2022/06/29 04:05:12;;;;;;;2.60;2.40;;;;;;;20.90;66.30;96875.34;10000471;29;20058;-83
2022/06/29 04:10:31;;;;;;;2.67;2.47;;;;;;;20.90;66.18;96870.72;10000110;29;20087;-82
2022/06/29 04:15:51;;;;;;;2.58;2.38;;;;;;;20.90;66.11;96870.72;9966853;29;20061;-82
2022/06/29 04:21:10;;;;;;;2.42;2.22;;;;;;;20.90;66.08;96859.09;10009392;29;20046;-82
2022/06/29 04:26:29;;;;;;;2.70;2.50;;;;;;;20.91;66.07;96860.66;10005880;29;20054;-82
2022/06/29 04:31:49;;;;;;;2.28;2.10;;;;;;;20.92;66.25;96859.56;9989078;29;20596;-82
2022/06/29 04:37:08;;;;;;;2.28;2.08;;;;;;;20.90;66.15;96862.59;9993404;29;20058;-82
2022/06/29 04:42:28;;;;;;;2.00;1.85;;;;;;;20.90;66.15;96864.50;9999602;29;20419;-84
2022/06/29 04:47:47;;;;;;;3.03;1.90;;;;;;;20.90;66.07;96859.09;9990778;29;20062;-84
2022/06/29 04:53:06;;;;;;;4.07;2.00;;;;;;;20.90;66.18;96853.69;9993103;29;20052;-83
2022/06/29 04:58:26;;;;;;;2.63;2.10;;;;;;;20.90;66.43;96853.69;10008968;29;20050;-82
2022/06/29 05:03:46;;;;;;;2.42;2.00;;;;;;;20.91;66.41;96855.25;10010387;29;20058;-82
2022/06/29 05:09:06;;;;;;;3.63;2.10;;;;;;;20.91;66.47;96860.66;10025984;29;20053;-82
2022/06/29 05:14:26;;;;;;;2.22;1.88;;;;;;;20.90;66.58;96864.50;9990450;29;20110;-83
2022/06/29 05:19:46;;;;;;;1.63;1.52;;;;;;;20.90;66.58;96869.94;10000415;29;20506;-82
2022/06/29 05:25:07;;;;;;;1.95;1.60;;;;;;;20.90;66.70;96864.50;9999212;29;20058;-82
2022/06/29 05:30:26;;;;;;;2.55;1.40;;;;;;;20.91;66.61;96856.06;10002144;29;20471;-82
2022/06/29 05:35:46;;;;;;;1.70;1.25;;;;;;;20.92;66.81;96860.34;10002908;29;20584;-83
2022/06/29 05:41:05;;;;;;;2.38;1.40;;;;;;;20.92;66.86;96867.69;9983941;29;20530;-82
2022/06/29 05:46:25;;;;;;;1.88;1.25;;;;;;;20.92;66.98;96881.22;10006944;29;20054;-82
2022/06/29 05:51:44;;;;;;;1.40;1.20;;;;;;;20.92;66.93;96883.94;10009625;29;20060;-82
2022/06/29 05:57:04;;;;;;;1.65;1.10;;;;;;;20.92;66.97;96878.50;10011232;29;20066;-83
2022/06/29 06:02:24;;;;;;;2.25;1.30;;;;;;;20.93;66.97;96886.31;10011894;29;20038;-82
2022/06/29 06:07:43;;;;;;;1.27;1.10;;;;;;;20.94;66.98;96881.69;10003324;29;20057;-83
2022/06/29 06:13:05;;;;;;;2.30;1.27;;;;;;;20.94;67.22;96882.47;10018601;29;20062;-82
2022/06/29 06:18:25;;;;;;;1.30;1.20;;;;;;;20.95;67.09;96877.84;9975304;29;20053;-83
2022/06/29 06:23:44;;;;;;;2.25;1.20;;;;;;;20.94;67.33;96877.06;10009716;29;20054;-82
2022/06/29 06:29:04;;;;;;;1.45;1.25;;;;;;;20.96;67.03;96882.16;10006062;29;20123;-82
2022/06/29 06:34:23;;;;;;;1.83;1.48;;;;;;;20.94;67.17;96881.69;10001271;29;20064;-82
2022/06/29 06:41:21;;;;;;;2.40;1.73;;;;;;;20.93;67.40;96880.91;10028727;29;20050;-82
2022/06/29 06:45:23;;;;;;;2.72;2.00;;;;;;;20.94;67.39;96871.63;10020232;29;20056;-82
2022/06/29 06:50:43;;;;;;;1.90;1.70;;;;;;;20.96;67.33;96876.72;10007215;29;20052;-82
2022/06/29 06:56:03;;;;;;;2.40;1.92;;;;;;;20.97;67.32;96880.22;9988426;29;20058;-82
2022/06/29 07:01:24;;;;;;;2.00;1.83;;;;;;;20.96;67.33;96887.56;9968813;29;20099;-82
2022/06/29 07:06:43;;;;;;;2.28;2.10;;;;;;;20.96;67.50;96895.69;10019171;29;20498;-83
2022/06/29 07:12:03;;;;;;;2.40;2.20;;;;;;;20.97;67.52;96902.66;10020376;29;20434;-82
2022/06/29 07:17:22;;;;;;;3.05;2.75;;;;;;;20.96;67.70;96909.22;10020818;29;20061;-82
2022/06/29 07:22:41;;;;;;;3.25;2.95;;;;;;;20.96;67.51;96925.47;9987679;29;20042;-82
2022/06/29 07:28:01;;;;;;;3.42;3.13;;;;;;;20.96;67.75;96924.69;10011754;29;20058;-82
2022/06/29 07:33:20;;;;;;;4.00;3.58;;;;;;;20.97;67.68;96923.56;9982204;29;20054;-82
2022/06/29 07:38:40;;;;;;;4.13;3.83;;;;;;;20.96;67.77;96920.06;10016383;29;20049;-82
2022/06/29 07:44:00;;;;;;;5.30;4.80;;;;;;;20.97;67.77;96905.38;9988546;29;20050;-82
2022/06/29 07:49:20;;;;;;;5.57;5.07;;;;;;;20.97;67.83;96901.88;9991184;29;20114;-83
2022/06/29 07:54:39;;;;;;;5.97;5.20;;;;;;;20.98;68.04;96879.91;10011374;29;20050;-82
2022/06/29 07:59:58;;;;;;;6.03;5.40;;;;;;;20.97;67.89;96875.59;10008688;29;20114;-82
2022/06/29 08:05:18;;;;;;;7.22;6.63;;;;;;;20.99;67.86;96862.50;10005708;29;20402;-82
2022/06/29 08:10:37;;;;;;;7.40;6.70;;;;;;;21.00;67.98;96891.19;9999393;29;20521;-83
2022/06/29 08:15:56;;;;;;;7.22;6.63;;;;;;;21.00;67.83;96896.59;10009656;29;20111;-83
2022/06/29 08:21:15;;;;;;;9.55;7.60;;;;;;;21.00;67.92;96888.47;9997015;29;20046;-83
2022/06/29 08:26:35;;;;;;;8.55;7.60;;;;;;;21.01;68.01;96873.81;10005652;29;20061;-83
2022/06/29 08:31:55;;;;;;;8.45;7.68;;;;;;;21.03;67.83;96868.88;10012669;29;20046;-82
2022/06/29 08:37:15;;;;;;;8.82;8.13;;;;;;;21.04;68.21;96858.81;9999727;29;20058;-83
2022/06/29 08:42:38;;;;;;;9.52;8.63;;;;;;;21.03;68.19;96866.16;9980679;29;20528;-82
2022/06/29 08:47:58;;;;;;;10.25;9.35;;;;;;;21.04;67.90;96845.28;9997924;29;20062;-83
2022/06/29 08:53:17;;;;;;;10.43;9.52;;;;;;;21.06;67.99;96791.56;10009968;29;20103;-83
2022/06/29 08:58:40;;;;;;;11.10;9.93;;;;;;;21.05;68.01;96863.91;9989416;29;20050;-83
2022/06/29 09:03:59;;;;;;;10.70;9.85;;;;;;;21.04;68.02;96892.09;10015854;29;20508;-82
2022/06/29 09:09:18;;;;;;;11.23;10.23;;;;;;;21.03;68.00;96912.22;10014535;29;20050;-82
2022/06/29 09:14:37;;;;;;;11.27;10.38;;;;;;;21.03;68.06;96917.63;10031059;29;20190;-82
2022/06/29 09:19:57;;;;;;;12.63;11.43;;;;;;;21.04;68.02;96915.69;10019206;29;20093;-82
2022/06/29 09:25:27;;;;;;;11.43;10.38;;;;;;;21.03;68.08;96942.00;9982266;29;20069;-82
2022/06/29 09:30:47;;;;;;;12.40;11.35;;;;;;;21.03;68.14;96936.59;10015986;29;20065;-82
2022/06/29 09:36:09;;;;;;;12.88;11.77;;;;;;;21.04;68.19;96945.50;9984683;29;20510;-84
2022/06/29 09:41:29;;;;;;;12.15;11.07;;;;;;;21.04;68.11;96957.13;10001266;29;20054;-83
2022/06/29 09:46:48;;;;;;;13.00;11.82;;;;;;;21.05;68.17;96938.94;10021905;29;20069;-83
2022/06/29 09:52:08;;;;;;;11.93;10.82;;;;;;;21.06;68.25;96948.66;9990556;29;20059;-83
2022/06/29 09:57:30;;;;;;;12.25;11.05;;;;;;;21.06;68.11;96965.69;10002344;29;20406;-83
2022/06/29 10:02:50;;;;;;;12.30;11.13;;;;;;;21.06;68.17;96976.53;10000277;29;20046;-83
2022/06/29 10:08:10;;;;;;;13.27;12.07;;;;;;;21.05;68.23;96947.88;9992757;29;20058;-83
2022/06/29 10:13:39;;;;;;;12.85;11.68;;;;;;;21.04;68.15;96935.44;10008380;29;20054;-83
2022/06/29 10:19:24;;;;;;;13.10;12.00;;;;;;;21.05;68.39;96925.41;9999856;29;20097;-83
2022/06/29 10:25:03;;;;;;;13.07;11.95;;;;;;;21.04;68.50;96919.19;10009964;29;20061;-82
2022/06/29 10:30:24;;;;;;;12.73;11.63;;;;;;;21.05;68.47;96904.53;10007857;29;20089;-82
2022/06/29 10:36:03;;;;;;;13.25;11.95;;;;;;;21.05;68.58;96876.63;10004106;29;20054;-83
2022/06/29 10:47:00;;;;;;;13.50;12.30;;;;;;;21.06;68.64;96881.72;9998211;29;20054;-83
2022/06/29 10:52:20;;;;;;;14.60;13.20;;;;;;;21.08;68.61;96876.00;10019462;29;20512;-82
2022/06/29 10:57:44;;;;;;;14.07;12.88;;;;;;;21.08;68.67;96878.69;10017224;29;20054;-82
2022/06/29 11:03:10;;;;;;;14.80;13.43;;;;;;;21.08;68.97;96884.91;10016915;29;20061;-82
2022/06/29 11:15:39;;;;;;;16.08;14.48;;;;;;;21.10;69.40;96885.34;10019659;29;20612;-82
2022/06/29 11:19:49;;;;;;;15.95;14.45;;;;;;;21.12;69.22;96877.69;10000817;29;20057;-82
2022/06/29 11:25:08;;;;;;;15.27;13.88;;;;;;;21.14;69.42;96869.25;10021881;29;20092;-82
2022/06/29 11:30:28;;;;;;;15.23;13.93;;;;;;;21.14;69.33;96859.19;10018998;29;20501;-82
2022/06/29 11:35:48;;;;;;;15.00;13.70;;;;;;;21.15;69.59;96830.19;10001756;29;20117;-83
2022/06/29 11:41:15;;;;;;;15.15;13.85;;;;;;;21.16;69.64;96839.13;9988644;29;20497;-84
2022/06/29 11:46:38;;;;;;;15.23;13.93;;;;;;;-146.19;100.00;65364.44;9999216;29;20077;-85
2022/06/29 11:52:01;;;;;;;16.27;14.77;;;;;;;-146.19;100.00;65364.44;10003015;29;20482;-83
2022/06/29 11:57:21;;;;;;;14.68;13.38;;;;;;;-146.19;100.00;65364.44;9996639;29;20046;-83
2022/06/29 12:02:41;;;;;;;15.60;14.02;;;;;;;-146.19;100.00;65364.44;10006959;29;20058;-83
2022/06/29 12:08:00;;;;;;;14.90;13.60;;;;;;;-146.19;100.00;65364.44;10016552;29;20046;-83
2022/06/29 12:13:20;;;;;;;13.25;12.10;;;;;;;-146.19;100.00;65364.44;10001830;29;20054;-83
2022/06/29 12:18:40;;;;;;;13.88;12.57;;;;;;;-146.19;100.00;65364.44;9997684;29;20046;-83
2022/06/29 12:23:59;;;;;;;13.18;12.02;;;;;;;-146.19;100.00;65364.44;9992139;29;20098;-83
2022/06/29 12:29:19;;;;;;;12.80;11.70;;;;;;;-146.19;100.00;65364.44;9993739;29;20057;-83
2022/06/29 12:34:40;;;;;;;12.55;11.35;;;;;;;-146.19;100.00;65364.44;10020323;29;20062;-83
2022/06/29 12:40:00;;;;;;;12.90;11.65;;;;;;;-146.19;100.00;65364.44;10014508;29;20513;-83
2022/06/29 12:45:20;;;;;;;11.77;10.57;;;;;;;-146.19;100.00;65364.44;9997545;29;20061;-83
2022/06/29 12:50:39;;;;;;;11.55;10.50;;;;;;;-146.19;100.00;65364.44;10010576;29;20042;-83
2022/06/29 12:55:59;;;;;;;12.18;10.98;;;;;;;-146.19;100.00;65364.44;10023211;29;20065;-83
2022/06/29 13:01:18;;;;;;;12.32;11.13;;;;;;;-146.19;100.00;65364.44;9997819;29;20580;-83
2022/06/29 13:06:39;;;;;;;12.88;11.00;;;;;;;-146.19;100.00;65364.44;10018724;29;20095;-83
2022/06/29 13:11:59;;;;;;;11.15;10.10;;;;;;;-146.19;100.00;65364.44;9997888;29;20057;-83
2022/06/29 13:17:19;;;;;;;11.73;10.07;;;;;;;-146.19;100.00;65364.44;10032968;29;20053;-83
2022/06/29 13:22:40;;;;;;;10.82;9.70;;;;;;;-146.19;100.00;65364.44;10023581;29;20050;-83
2022/06/29 13:28:00;;;;;;;10.38;9.27;;;;;;;-146.19;100.00;65364.44;10014881;29;20046;-83
2022/06/29 13:33:20;;;;;;;10.50;9.40;;;;;;;-146.19;100.00;65364.44;9996571;29;20512;-83
2022/06/29 13:38:39;;;;;;;9.02;8.20;;;;;;;-146.19;100.00;65364.44;10008988;29;20081;-83
2022/06/29 13:43:59;;;;;;;9.63;8.10;;;;;;;-146.19;100.00;65364.44;10009777;29;20049;-84
2022/06/29 13:49:19;;;;;;;9.82;7.78;;;;;;;-146.19;100.00;65364.44;9996371;29;20065;-83
2022/06/29 13:54:40;;;;;;;8.52;7.72;;;;;;;-146.19;100.00;65364.44;10014409;29;20064;-83
2022/06/29 13:59:59;;;;;;;8.00;7.20;;;;;;;-146.19;100.00;65364.44;10014156;29;20054;-83
2022/06/29 14:05:19;;;;;;;9.48;7.75;;;;;;;-146.19;100.00;65364.44;10011622;29;20060;-83
2022/06/29 14:10:39;;;;;;;8.98;8.15;;;;;;;-146.19;100.00;65364.44;10015587;29;20049;-83
2022/06/29 14:15:59;;;;;;;8.90;8.10;;;;;;;-146.19;100.00;65364.44;9998200;29;20126;-83
2022/06/29 14:21:19;;;;;;;9.40;8.48;;;;;;;-146.19;100.00;65364.44;10012384;29;20046;-83
2022/06/29 14:26:39;;;;;;;9.07;8.18;;;;;;;-146.19;100.00;65364.44;10007449;29;20058;-83
2022/06/29 14:31:58;;;;;;;9.35;8.30;;;;;;;-146.19;100.00;65364.44;10018599;29;20064;-84
2022/06/29 14:37:17;;;;;;;9.00;8.20;;;;;;;-146.19;100.00;65364.44;10006903;29;20068;-83
2022/06/29 14:42:37;;;;;;;9.45;8.10;;;;;;;-146.19;100.00;65364.44;10002169;29;20115;-84
2022/06/29 14:47:57;;;;;;;10.07;8.40;;;;;;;-146.19;100.00;65364.44;9996400;29;20058;-83
2022/06/29 14:53:16;;;;;;;8.82;8.13;;;;;;;-146.19;100.00;65364.44;10004145;29;20057;-84
2022/06/29 14:58:35;;;;;;;9.98;8.10;;;;;;;-146.19;100.00;65364.44;9980406;29;20049;-82
2022/06/29 15:03:55;;;;;;;10.07;8.07;;;;;;;-146.19;100.00;65364.44;10004575;29;20061;-84
2022/06/29 15:09:15;;;;;;;8.63;7.68;;;;;;;-146.19;100.00;65364.44;10012309;29;20399;-83
2022/06/29 15:14:34;;;;;;;9.00;7.97;;;;;;;-146.19;100.00;65364.44;9990319;29;20046;-83
2022/06/29 15:19:54;;;;;;;9.02;7.88;;;;;;;-146.19;100.00;65364.44;10006992;29;20078;-83
2022/06/29 15:25:13;;;;;;;10.57;8.18;;;;;;;-146.19;100.00;65364.44;10023244;29;20058;-82
2022/06/29 15:30:32;;;;;;;9.25;8.18;;;;;;;-146.19;100.00;65364.44;10008378;29;20050;-83
2022/06/29 15:41:30;;;;;;;8.38;7.53;;;;;;;-146.19;100.00;65364.44;10019646;29;20057;-83
2022/06/29 15:46:50;;;;;;;8.65;7.85;;;;;;;-146.19;100.00;65364.44;9994757;29;20118;-83
2022/06/29 15:52:10;;;;;;;8.93;8.07;;;;;;;-146.19;100.00;65364.44;9995332;29;20095;-83
2022/06/29 15:57:29;;;;;;;8.75;7.95;;;;;;;-146.19;100.00;65364.44;9987048;29;20054;-83
2022/06/29 16:02:49;;;;;;;9.27;8.45;;;;;;;-146.19;100.00;65364.44;10005458;29;20050;-83
2022/06/29 16:08:09;;;;;;;8.80;7.88;;;;;;;-146.19;100.00;65364.44;9995876;29;20058;-83
2022/06/29 16:13:28;;;;;;;8.98;7.88;;;;;;;-146.19;100.00;65364.44;10019398;29;20058;-82
2022/06/29 16:18:47;;;;;;;9.02;8.13;;;;;;;-146.19;100.00;65364.44;10010979;29;20049;-82
2022/06/29 16:24:07;;;;;;;10.32;9.07;;;;;;;-146.19;100.00;65364.44;10003172;29;20047;-82
2022/06/29 16:29:26;;;;;;;8.88;7.93;;;;;;;-146.19;100.00;65364.44;9990736;29;20057;-83
2022/06/29 16:34:46;;;;;;;9.52;8.52;;;;;;;-146.19;100.00;65364.44;10015938;29;20087;-81
2022/06/29 16:40:06;;;;;;;8.15;7.45;;;;;;;-146.19;100.00;65364.44;10021000;29;20102;-81
2022/06/29 16:45:26;;;;;;;8.80;7.97;;;;;;;-146.19;100.00;65364.44;10003944;29;20114;-82
2022/06/29 16:50:45;;;;;;;10.00;8.55;;;;;;;-146.19;100.00;65364.44;10004769;29;20490;-82
2022/06/29 16:56:05;;;;;;;9.25;8.32;;;;;;;-146.19;100.00;65364.44;10006748;29;20062;-82
2022/06/29 17:01:24;;;;;;;9.25;8.43;;;;;;;-146.19;100.00;65364.44;10019592;29;20053;-82
2022/06/29 17:06:43;;;;;;;9.48;8.57;;;;;;;-146.19;100.00;65364.44;10002489;29;20065;-81
2022/06/29 17:12:04;;;;;;;10.90;8.32;;;;;;;-146.19;100.00;65364.44;9997761;29;20050;-83
2022/06/29 17:17:24;;;;;;;9.55;8.65;;;;;;;-146.19;100.00;65364.44;9998885;29;20422;-83
2022/06/29 17:22:43;;;;;;;9.98;9.02;;;;;;;-146.19;100.00;65364.44;10010152;29;20099;-82
2022/06/29 17:28:03;;;;;;;11.52;9.43;;;;;;;-146.19;100.00;65364.44;10006772;29;20065;-82
2022/06/29 17:33:22;;;;;;;10.38;9.27;;;;;;;-146.19;100.00;65364.44;10010004;29;20053;-81
2022/06/29 17:38:42;;;;;;;12.00;9.27;;;;;;;-146.19;100.00;65364.44;9968992;29;20058;-84
2022/06/29 17:44:03;;;;;;;10.27;9.27;;;;;;;-146.19;100.00;65364.44;9954926;29;20148;-84
2022/06/29 17:49:24;;;;;;;10.25;8.75;;;;;;;-146.19;100.00;65364.44;9957406;29;20465;-85
2022/06/29 17:54:44;;;;;;;10.27;9.20;;;;;;;-146.19;100.00;65364.44;9979509;29;20119;-85
2022/06/29 18:00:05;;;;;;;10.98;9.88;;;;;;;-146.19;100.00;65364.44;9978767;29;20067;-85
2022/06/29 18:05:24;;;;;;;11.23;10.23;;;;;;;-146.19;100.00;65364.44;9984262;29;20478;-87
2022/06/29 18:10:44;;;;;;;11.68;10.48;;;;;;;-146.19;100.00;65364.44;9956449;29;20051;-87
2022/06/29 18:16:04;;;;;;;12.65;9.95;;;;;;;-146.19;100.00;65364.44;9964490;29;20058;-88
2022/06/29 18:21:23;;;;;;;10.07;9.18;;;;;;;-146.19;100.00;65364.44;9975092;29;20418;-85
2022/06/29 18:26:43;;;;;;;9.55;8.63;;;;;;;-146.19;100.00;65364.44;9972606;29;20054;-83
2022/06/29 18:32:05;;;;;;;9.55;8.68;;;;;;;-146.19;100.00;65364.44;9969738;29;20068;-83
2022/06/29 18:37:24;;;;;;;9.20;8.30;;;;;;;-146.19;100.00;65364.44;9981863;29;20074;-83
2022/06/29 18:42:44;;;;;;;9.32;8.43;;;;;;;-146.19;100.00;65364.44;10017671;29;20054;-86
2022/06/29 18:48:03;;;;;;;8.23;7.45;;;;;;;-146.19;100.00;65364.44;10016277;29;20066;-86
2022/06/29 18:53:23;;;;;;;9.43;7.78;;;;;;;-146.19;100.00;65364.44;9994291;29;20054;-88
2022/06/29 18:58:42;;;;;;;8.90;7.93;;;;;;;-146.19;100.00;65364.44;9999202;29;20057;-86
2022/06/29 19:04:05;;;;;;;8.35;7.55;;;;;;;-146.19;100.00;65364.44;10019745;29;20069;-86
2022/06/29 19:09:24;;;;;;;8.40;7.60;;;;;;;-146.19;100.00;65364.44;10001442;29;20050;-86
2022/06/29 19:14:44;;;;;;;7.53;6.63;;;;;;;-146.19;100.00;65364.44;9993846;29;20053;-83
2022/06/29 19:20:04;;;;;;;9.25;6.30;;;;;;;-146.19;100.00;65364.44;10017734;29;20058;-85
2022/06/29 19:25:23;;;;;;;6.53;5.47;;;;;;;-146.19;100.00;65364.44;10020377;29;20104;-84
2022/06/29 19:30:44;;;;;;;5.82;5.13;;;;;;;-146.19;100.00;65364.44;9980364;29;20050;-83
2022/06/29 19:36:05;;;;;;;6.68;4.88;;;;;;;-146.19;100.00;65364.44;9988073;29;20066;-84
2022/06/29 19:41:25;;;;;;;4.43;3.85;;;;;;;-146.19;100.00;65364.44;10007414;29;20058;-83
2022/06/29 19:46:45;;;;;;;6.03;4.13;;;;;;;-146.19;100.00;65364.44;10023048;29;20061;-84
2022/06/29 19:52:05;;;;;;;4.90;3.83;;;;;;;-146.19;100.00;65364.44;9996030;29;20065;-84
2022/06/29 19:57:25;;;;;;;6.85;3.97;;;;;;;-146.19;100.00;65364.44;10005781;29;20049;-85
2022/06/29 20:02:45;;;;;;;4.13;3.70;;;;;;;-146.19;100.00;65364.44;9971935;29;20119;-84
2022/06/29 20:08:04;;;;;;;3.60;3.30;;;;;;;-146.19;100.00;65364.44;9995726;29;20083;-84
2022/06/29 20:13:24;;;;;;;4.32;3.53;;;;;;;-146.19;100.00;65364.44;10002840;29;20057;-85
2022/06/29 20:18:45;;;;;;;4.47;3.10;;;;;;;-146.19;100.00;65364.44;9990987;29;20058;-84
2022/06/29 20:24:04;;;;;;;3.80;3.40;;;;;;;-146.19;100.00;65364.44;9982504;29;20054;-84
2022/06/29 20:29:26;;;;;;;6.10;3.65;;;;;;;-146.19;100.00;65364.44;9979110;29;20061;-83
2022/06/29 20:34:46;;;;;;;3.63;3.08;;;;;;;-146.19;100.00;65364.44;9980125;29;20104;-83
2022/06/29 20:40:07;;;;;;;4.38;3.60;;;;;;;-146.19;100.00;65364.44;10005097;29;20510;-83
2022/06/29 20:45:26;;;;;;;6.28;3.42;;;;;;;-146.19;100.00;65364.44;10001249;29;20062;-84
2022/06/29 20:50:46;;;;;;;4.40;3.15;;;;;;;-146.19;100.00;65364.44;10006408;29;20058;-82
2022/06/29 20:56:07;;;;;;;5.68;3.63;;;;;;;-146.19;100.00;65364.44;10018032;29;20057;-82
2022/06/29 21:01:26;;;;;;;4.35;3.00;;;;;;;-146.19;100.00;65364.44;9994078;29;20665;-82
2022/06/29 21:06:52;;;;;;;4.03;3.22;;;;;;;-146.19;100.00;65364.44;9990433;29;20057;-82
2022/06/29 21:12:12;;;;;;;4.72;3.22;;;;;;;-146.19;100.00;65364.44;9991271;29;20050;-82
2022/06/29 21:17:31;;;;;;;5.25;3.05;;;;;;;-146.19;100.00;65364.44;10011326;29;20050;-83
2022/06/29 21:22:51;;;;;;;4.03;2.90;;;;;;;-146.19;100.00;65364.44;10003033;29;20065;-82
2022/06/29 21:28:11;;;;;;;3.95;2.85;;;;;;;-146.19;100.00;65364.44;9995892;29;20065;-82
2022/06/29 21:33:30;;;;;;;4.45;3.00;;;;;;;-146.19;100.00;65364.44;10017241;29;20465;-83
2022/06/29 21:38:50;;;;;;;4.00;2.80;;;;;;;-146.19;100.00;65364.44;9986294;29;20065;-82
2022/06/29 21:44:10;;;;;;;3.85;2.95;;;;;;;-146.19;100.00;65364.44;10009417;29;20059;-82
2022/06/29 21:55:08;;;;;;;2.83;2.50;;;;;;;-146.19;100.00;65364.44;10012895;29;20054;-83
2022/06/29 22:00:30;;;;;;;2.80;2.42;;;;;;;-146.19;100.00;65364.44;9994282;29;20458;-83
2022/06/29 22:05:50;;;;;;;2.78;2.38;;;;;;;-146.19;100.00;65364.44;10030736;29;20061;-83
2022/06/29 22:11:09;;;;;;;3.10;2.15;;;;;;;-146.19;100.00;65364.44;10004118;29;20054;-82
2022/06/29 22:16:29;;;;;;;2.65;2.40;;;;;;;-146.19;100.00;65364.44;9998203;29;20238;-83
2022/06/29 22:21:49;;;;;;;2.45;2.20;;;;;;;-146.19;100.00;65364.44;10006768;29;20521;-83
2022/06/29 22:27:08;;;;;;;3.05;2.30;;;;;;;-146.19;100.00;65364.44;9992762;29;20065;-83
2022/06/29 22:32:27;;;;;;;2.22;2.05;;;;;;;-146.19;100.00;65364.44;10006009;29;20126;-83
2022/06/29 22:37:47;;;;;;;2.88;2.13;;;;;;;-146.19;100.00;65364.44;10000692;29;20046;-82
2022/06/29 22:43:07;;;;;;;4.43;2.45;;;;;;;-146.19;100.00;65364.44;9992010;29;20054;-83
2022/06/29 22:48:26;;;;;;;3.72;2.10;;;;;;;-146.19;100.00;65364.44;10014816;29;20045;-82
2022/06/29 22:53:46;;;;;;;2.80;2.20;;;;;;;-146.19;100.00;65364.44;9995254;29;20534;-83
2022/06/29 22:59:05;;;;;;;2.13;1.92;;;;;;;-146.19;100.00;65364.44;10003546;29;20054;-83
2022/06/29 23:04:25;;;;;;;2.20;2.00;;;;;;;-146.19;100.00;65364.44;10015494;29;20046;-83
2022/06/29 23:09:44;;;;;;;2.22;1.83;;;;;;;-146.19;100.00;65364.44;10002648;29;20068;-82
2022/06/29 23:15:08;;;;;;;2.10;2.00;;;;;;;-146.19;100.00;65364.44;10027922;29;20118;-82
2022/06/29 23:20:27;;;;;;;2.03;1.92;;;;;;;-146.19;100.00;65364.44;10001927;29;20054;-82
2022/06/29 23:25:47;;;;;;;1.80;1.70;;;;;;;-146.19;100.00;65364.44;10028168;29;20054;-83
2022/06/29 23:31:06;;;;;;;2.45;1.98;;;;;;;-146.19;100.00;65364.44;10027149;29;20335;-83
2022/06/29 23:36:26;;;;;;;3.22;2.00;;;;;;;-146.19;100.00;65364.44;10000298;29;20495;-83
2022/06/29 23:41:47;;;;;;;2.03;1.83;;;;;;;-146.19;100.00;65364.44;9996963;29;20061;-83
2022/06/29 23:47:06;;;;;;;2.22;1.70;;;;;;;-146.19;100.00;65364.44;9999890;29;20062;-83
2022/06/29 23:52:26;;;;;;;3.22;1.90;;;;;;;-146.19;100.00;65364.44;10008702;29;20057;-83
2022/06/29 23:57:47;;;;;;;4.43;1.77;;;;;;;-146.19;100.00;65364.44;10007615;29;20613;-83
